sensor_id;sensor_type;location;lat;lon;timestamp;temperature;humidity
11908;DHT22;6014;47.690;9.130;2023-02-12T00:01:27;-2.40;99.90
11908;DHT22;6014;47.690;9.130;2023-02-12T00:03:55;-2.40;99.90
11908;DHT22;6014;47.690;9.130;2023-02-12T00:06:23;-2.50;99.90
11908;DHT22;6014;47.690;9.130;2023-02-12T00:08:54;-2.60;99.90
11908;DHT22;6014;47.690;9.130;2023-02-12T00:11:24;-2.60;99.90
11908;DHT22;6014;47.690;9.130;2023-02-12T00:13:53;-2.50;99.90
11908;DHT22;6014;47.690;9.130;2023-02-12T00:16:23;-2.50;99.90
11908;DHT22;6014;47.690;9.130;2023-02-12T00:18:52;-2.60;99.90
11908;DHT22;6014;47.690;9.130;2023-02-12T00:21:21;-2.70;99.90
11908;DHT22;6014;47.690;9.130;2023-02-12T00:23:53;-2.70;99.90
11908;DHT22;6014;47.690;9.130;2023-02-12T00:26:22;-2.60;99.90
11908;DHT22;6014;47.690;9.130;2023-02-12T00:28:51;-2.60;99.90
11908;DHT22;6014;47.690;9.130;2023-02-12T00:31:20;-2.70;99.90
11908;DHT22;6014;47.690;9.130;2023-02-12T00:33:49;-2.70;99.90
11908;DHT22;6014;47.690;9.130;2023-02-12T00:36:20;-2.60;99.90
11908;DHT22;6014;47.690;9.130;2023-02-12T00:38:49;-2.40;99.90
11908;DHT22;6014;47.690;9.130;2023-02-12T00:41:19;-2.70;99.90
11908;DHT22;6014;47.690;9.130;2023-02-12T00:43:47;-2.70;99.90
11908;DHT22;6014;47.690;9.130;2023-02-12T00:46:16;-2.80;99.90
11908;DHT22;6014;47.690;9.130;2023-02-12T00:48:44;-2.80;99.90
11908;DHT22;6014;47.690;9.130;2023-02-12T00:51:12;-2.80;99.90
11908;DHT22;6014;47.690;9.130;2023-02-12T00:53:41;-2.80;99.90
11908;DHT22;6014;47.690;9.130;2023-02-12T00:56:09;-2.80;99.90
11908;DHT22;6014;47.690;9.130;2023-02-12T00:58:38;-2.70;99.90
11908;DHT22;6014;47.690;9.130;2023-02-12T01:01:24;-2.60;99.90
11908;DHT22;6014;47.690;9.130;2023-02-12T01:03:53;-2.60;99.90
11908;DHT22;6014;47.690;9.130;2023-02-12T01:06:21;-2.60;99.90
11908;DHT22;6014;47.690;9.130;2023-02-12T01:08:49;-2.50;99.90
11908;DHT22;6014;47.690;9.130;2023-02-12T01:11:18;-2.60;99.90
11908;DHT22;6014;47.690;9.130;2023-02-12T01:13:49;-2.50;99.90
11908;DHT22;6014;47.690;9.130;2023-02-12T01:16:21;-2.60;99.90
11908;DHT22;6014;47.690;9.130;2023-02-12T01:21:46;-2.70;99.90
11908;DHT22;6014;47.690;9.130;2023-02-12T01:24:15;-2.70;99.90
11908;DHT22;6014;47.690;9.130;2023-02-12T01:26:49;-2.70;99.90
11908;DHT22;6014;47.690;9.130;2023-02-12T01:29:19;-2.60;99.90
11908;DHT22;6014;47.690;9.130;2023-02-12T01:31:47;-2.60;99.90
11908;DHT22;6014;47.690;9.130;2023-02-12T01:34:17;-2.60;99.90
11908;DHT22;6014;47.690;9.130;2023-02-12T01:36:45;-2.60;99.90
11908;DHT22;6014;47.690;9.130;2023-02-12T01:39:15;-2.70;99.90
11908;DHT22;6014;47.690;9.130;2023-02-12T01:41:50;-2.70;99.90
11908;DHT22;6014;47.690;9.130;2023-02-12T01:44:22;-2.70;99.90
11908;DHT22;6014;47.690;9.130;2023-02-12T01:46:56;-2.70;99.90
11908;DHT22;6014;47.690;9.130;2023-02-12T01:49:43;-2.60;99.90
11908;DHT22;6014;47.690;9.130;2023-02-12T01:52:25;-2.70;99.90
11908;DHT22;6014;47.690;9.130;2023-02-12T01:55:05;-2.70;99.90
11908;DHT22;6014;47.690;9.130;2023-02-12T01:57:40;-2.70;99.90
11908;DHT22;6014;47.690;9.130;2023-02-12T02:00:13;-2.80;99.90
11908;DHT22;6014;47.690;9.130;2023-02-12T02:02:45;-2.90;99.90
11908;DHT22;6014;47.690;9.130;2023-02-12T02:05:19;-2.90;99.90
11908;DHT22;6014;47.690;9.130;2023-02-12T02:07:50;-2.90;99.90
11908;DHT22;6014;47.690;9.130;2023-02-12T02:10:19;-2.90;99.90
11908;DHT22;6014;47.690;9.130;2023-02-12T02:12:47;-2.60;99.90
11908;DHT22;6014;47.690;9.130;2023-02-12T02:15:36;-2.90;99.90
11908;DHT22;6014;47.690;9.130;2023-02-12T02:18:20;-2.90;99.90
11908;DHT22;6014;47.690;9.130;2023-02-12T02:27:34;-3.10;99.90
11908;DHT22;6014;47.690;9.130;2023-02-12T02:30:25;-3.20;99.90
11908;DHT22;6014;47.690;9.130;2023-02-12T02:33:07;-3.20;99.90
11908;DHT22;6014;47.690;9.130;2023-02-12T02:35:46;-3.30;99.90
11908;DHT22;6014;47.690;9.130;2023-02-12T02:38:32;-3.30;99.90
11908;DHT22;6014;47.690;9.130;2023-02-12T02:41:27;-3.30;99.90
11908;DHT22;6014;47.690;9.130;2023-02-12T02:44:08;-3.20;99.90
11908;DHT22;6014;47.690;9.130;2023-02-12T02:46:46;-3.10;99.90
11908;DHT22;6014;47.690;9.130;2023-02-12T02:49:18;-3.10;99.90
11908;DHT22;6014;47.690;9.130;2023-02-12T02:51:52;-3.00;99.90
11908;DHT22;6014;47.690;9.130;2023-02-12T02:54:31;-3.10;99.90
11908;DHT22;6014;47.690;9.130;2023-02-12T02:57:04;-3.00;99.90
11908;DHT22;6014;47.690;9.130;2023-02-12T02:59:39;-3.10;99.90
11908;DHT22;6014;47.690;9.130;2023-02-12T03:02:14;-3.00;99.90
11908;DHT22;6014;47.690;9.130;2023-02-12T03:04:53;-3.10;99.90
11908;DHT22;6014;47.690;9.130;2023-02-12T03:07:33;-3.10;99.90
11908;DHT22;6014;47.690;9.130;2023-02-12T03:10:16;-3.10;99.90
11908;DHT22;6014;47.690;9.130;2023-02-12T03:12:51;-3.10;99.90
11908;DHT22;6014;47.690;9.130;2023-02-12T03:15:25;-3.20;99.90
11908;DHT22;6014;47.690;9.130;2023-02-12T03:18:01;-3.20;99.90
11908;DHT22;6014;47.690;9.130;2023-02-12T03:20:35;-3.10;99.90
11908;DHT22;6014;47.690;9.130;2023-02-12T03:23:06;-3.10;99.90
11908;DHT22;6014;47.690;9.130;2023-02-12T03:25:39;-3.10;99.90
11908;DHT22;6014;47.690;9.130;2023-02-12T03:28:33;-3.00;99.90
11908;DHT22;6014;47.690;9.130;2023-02-12T03:31:22;-3.00;99.90
11908;DHT22;6014;47.690;9.130;2023-02-12T03:34:17;-3.10;99.90
11908;DHT22;6014;47.690;9.130;2023-02-12T03:37:02;-3.10;99.90
11908;DHT22;6014;47.690;9.130;2023-02-12T03:39:42;-3.30;99.90
11908;DHT22;6014;47.690;9.130;2023-02-12T03:42:38;-3.40;99.90
11908;DHT22;6014;47.690;9.130;2023-02-12T03:45:39;-3.30;99.90
11908;DHT22;6014;47.690;9.130;2023-02-12T03:48:12;-3.30;99.90
11908;DHT22;6014;47.690;9.130;2023-02-12T03:50:47;-3.20;99.90
11908;DHT22;6014;47.690;9.130;2023-02-12T03:53:19;-3.10;99.90
11908;DHT22;6014;47.690;9.130;2023-02-12T03:56:04;-3.20;99.90
11908;DHT22;6014;47.690;9.130;2023-02-12T03:58:36;-3.40;99.90
11908;DHT22;6014;47.690;9.130;2023-02-12T04:01:13;-3.40;99.90
11908;DHT22;6014;47.690;9.130;2023-02-12T04:03:50;-3.40;99.90
11908;DHT22;6014;47.690;9.130;2023-02-12T04:06:22;-3.50;99.90
11908;DHT22;6014;47.690;9.130;2023-02-12T04:09:03;-3.50;99.90
11908;DHT22;6014;47.690;9.130;2023-02-12T04:11:39;-3.60;99.90
11908;DHT22;6014;47.690;9.130;2023-02-12T04:17:08;-3.50;99.90
11908;DHT22;6014;47.690;9.130;2023-02-12T04:19:53;-3.30;99.90
11908;DHT22;6014;47.690;9.130;2023-02-12T04:22:45;-3.30;99.90
11908;DHT22;6014;47.690;9.130;2023-02-12T04:25:34;-3.30;99.90
11908;DHT22;6014;47.690;9.130;2023-02-12T04:28:26;-3.20;99.90
11908;DHT22;6014;47.690;9.130;2023-02-12T04:31:06;-3.20;99.90
11908;DHT22;6014;47.690;9.130;2023-02-12T04:33:43;-3.20;99.90
11908;DHT22;6014;47.690;9.130;2023-02-12T04:36:20;-3.20;99.90
11908;DHT22;6014;47.690;9.130;2023-02-12T04:41:59;-3.20;99.90
11908;DHT22;6014;47.690;9.130;2023-02-12T04:44:31;-3.20;99.90
11908;DHT22;6014;47.690;9.130;2023-02-12T04:47:02;-3.30;99.90
11908;DHT22;6014;47.690;9.130;2023-02-12T04:49:30;-3.30;99.90
11908;DHT22;6014;47.690;9.130;2023-02-12T04:52:00;-2.90;99.90
11908;DHT22;6014;47.690;9.130;2023-02-12T04:54:42;-3.40;99.90
11908;DHT22;6014;47.690;9.130;2023-02-12T04:57:30;-3.60;99.90
11908;DHT22;6014;47.690;9.130;2023-02-12T04:59:58;-3.60;99.90
11908;DHT22;6014;47.690;9.130;2023-02-12T05:02:26;-3.70;99.90
11908;DHT22;6014;47.690;9.130;2023-02-12T05:05:00;-3.70;99.90
11908;DHT22;6014;47.690;9.130;2023-02-12T05:07:36;-3.70;99.90
11908;DHT22;6014;47.690;9.130;2023-02-12T05:10:11;-3.60;99.90
11908;DHT22;6014;47.690;9.130;2023-02-12T05:12:45;-3.60;99.90
11908;DHT22;6014;47.690;9.130;2023-02-12T05:15:27;-3.60;99.90
11908;DHT22;6014;47.690;9.130;2023-02-12T05:17:55;-3.50;99.90
11908;DHT22;6014;47.690;9.130;2023-02-12T05:20:23;-3.40;99.90
11908;DHT22;6014;47.690;9.130;2023-02-12T05:23:01;-2.90;99.90
11908;DHT22;6014;47.690;9.130;2023-02-12T05:25:29;-2.90;99.90
11908;DHT22;6014;47.690;9.130;2023-02-12T05:28:23;-3.50;99.90
11908;DHT22;6014;47.690;9.130;2023-02-12T05:30:51;-3.50;99.90
11908;DHT22;6014;47.690;9.130;2023-02-12T05:33:20;-3.50;99.90
11908;DHT22;6014;47.690;9.130;2023-02-12T05:35:50;-3.50;99.90
11908;DHT22;6014;47.690;9.130;2023-02-12T05:38:18;-3.40;99.90
11908;DHT22;6014;47.690;9.130;2023-02-12T05:40:46;-3.50;99.90
11908;DHT22;6014;47.690;9.130;2023-02-12T05:43:14;-3.40;99.90
11908;DHT22;6014;47.690;9.130;2023-02-12T05:45:43;-3.40;99.90
11908;DHT22;6014;47.690;9.130;2023-02-12T05:48:11;-3.30;99.90
11908;DHT22;6014;47.690;9.130;2023-02-12T05:50:39;-3.20;99.90
11908;DHT22;6014;47.690;9.130;2023-02-12T05:53:07;-3.20;99.90
11908;DHT22;6014;47.690;9.130;2023-02-12T05:55:48;-3.20;99.90
11908;DHT22;6014;47.690;9.130;2023-02-12T05:58:16;-3.20;99.90
11908;DHT22;6014;47.690;9.130;2023-02-12T06:01:07;-3.20;99.90
11908;DHT22;6014;47.690;9.130;2023-02-12T06:03:47;-3.20;99.90
11908;DHT22;6014;47.690;9.130;2023-02-12T06:06:21;-2.90;99.90
11908;DHT22;6014;47.690;9.130;2023-02-12T06:08:51;-3.20;99.90
11908;DHT22;6014;47.690;9.130;2023-02-12T06:11:20;-3.20;99.90
11908;DHT22;6014;47.690;9.130;2023-02-12T06:13:49;-3.20;99.90
11908;DHT22;6014;47.690;9.130;2023-02-12T06:16:22;-3.30;99.90
11908;DHT22;6014;47.690;9.130;2023-02-12T06:18:51;-3.30;99.90
11908;DHT22;6014;47.690;9.130;2023-02-12T06:21:20;-3.30;99.90
11908;DHT22;6014;47.690;9.130;2023-02-12T06:23:56;-3.30;99.90
11908;DHT22;6014;47.690;9.130;2023-02-12T06:26:25;-3.20;99.90
11908;DHT22;6014;47.690;9.130;2023-02-12T06:28:54;-3.20;99.90
11908;DHT22;6014;47.690;9.130;2023-02-12T06:31:31;-3.10;99.90
11908;DHT22;6014;47.690;9.130;2023-02-12T06:34:02;-3.10;99.90
11908;DHT22;6014;47.690;9.130;2023-02-12T06:36:31;-3.20;99.90
11908;DHT22;6014;47.690;9.130;2023-02-12T06:39:00;-3.20;99.90
11908;DHT22;6014;47.690;9.130;2023-02-12T06:41:41;-3.10;99.90
11908;DHT22;6014;47.690;9.130;2023-02-12T06:44:15;-3.30;99.90
11908;DHT22;6014;47.690;9.130;2023-02-12T06:46:46;-3.20;99.90
11908;DHT22;6014;47.690;9.130;2023-02-12T06:49:14;-3.20;99.90
11908;DHT22;6014;47.690;9.130;2023-02-12T06:51:52;-3.30;99.90
11908;DHT22;6014;47.690;9.130;2023-02-12T06:54:20;-3.40;99.90
11908;DHT22;6014;47.690;9.130;2023-02-12T06:56:48;-3.40;99.90
11908;DHT22;6014;47.690;9.130;2023-02-12T06:59:16;-3.30;99.90
11908;DHT22;6014;47.690;9.130;2023-02-12T07:01:55;-3.20;99.90
11908;DHT22;6014;47.690;9.130;2023-02-12T07:04:22;-3.10;99.90
11908;DHT22;6014;47.690;9.130;2023-02-12T07:06:52;-3.00;99.90
11908;DHT22;6014;47.690;9.130;2023-02-12T07:09:27;-2.80;99.90
11908;DHT22;6014;47.690;9.130;2023-02-12T07:12:01;-2.60;99.90
11908;DHT22;6014;47.690;9.130;2023-02-12T07:14:29;-2.30;99.90
11908;DHT22;6014;47.690;9.130;2023-02-12T07:17:08;-2.10;99.90
11908;DHT22;6014;47.690;9.130;2023-02-12T07:19:39;-1.90;99.90
11908;DHT22;6014;47.690;9.130;2023-02-12T07:22:15;-1.70;99.90
11908;DHT22;6014;47.690;9.130;2023-02-12T07:24:45;-1.70;99.90
11908;DHT22;6014;47.690;9.130;2023-02-12T07:27:23;-1.60;99.90
11908;DHT22;6014;47.690;9.130;2023-02-12T07:29:51;-1.50;99.90
11908;DHT22;6014;47.690;9.130;2023-02-12T07:32:20;-1.40;99.90
11908;DHT22;6014;47.690;9.130;2023-02-12T07:34:48;-1.20;99.90
11908;DHT22;6014;47.690;9.130;2023-02-12T07:37:32;-1.00;99.90
11908;DHT22;6014;47.690;9.130;2023-02-12T07:40:02;-0.60;99.90
11908;DHT22;6014;47.690;9.130;2023-02-12T07:42:42;-0.40;99.90
11908;DHT22;6014;47.690;9.130;2023-02-12T07:45:11;-0.30;99.90
11908;DHT22;6014;47.690;9.130;2023-02-12T07:47:46;-0.30;99.90
11908;DHT22;6014;47.690;9.130;2023-02-12T07:50:16;-0.30;99.90
11908;DHT22;6014;47.690;9.130;2023-02-12T07:52:58;-0.30;99.90
11908;DHT22;6014;47.690;9.130;2023-02-12T07:55:25;-0.30;99.90
11908;DHT22;6014;47.690;9.130;2023-02-12T07:57:59;-0.20;99.90
11908;DHT22;6014;47.690;9.130;2023-02-12T08:00:37;0.00;99.90
11908;DHT22;6014;47.690;9.130;2023-02-12T08:03:30;0.20;99.90
11908;DHT22;6014;47.690;9.130;2023-02-12T08:06:14;0.40;99.90
11908;DHT22;6014;47.690;9.130;2023-02-12T08:08:44;0.60;99.90
11908;DHT22;6014;47.690;9.130;2023-02-12T08:11:13;0.60;99.90
11908;DHT22;6014;47.690;9.130;2023-02-12T08:13:42;0.70;99.90
11908;DHT22;6014;47.690;9.130;2023-02-12T08:16:12;0.70;99.90
11908;DHT22;6014;47.690;9.130;2023-02-12T08:18:42;0.90;99.90
11908;DHT22;6014;47.690;9.130;2023-02-12T08:21:11;0.90;99.90
11908;DHT22;6014;47.690;9.130;2023-02-12T08:23:49;1.00;99.90
11908;DHT22;6014;47.690;9.130;2023-02-12T08:26:30;1.10;99.90
11908;DHT22;6014;47.690;9.130;2023-02-12T08:29:06;1.50;99.90
11908;DHT22;6014;47.690;9.130;2023-02-12T08:31:37;1.70;99.90
11908;DHT22;6014;47.690;9.130;2023-02-12T08:34:15;1.80;99.90
11908;DHT22;6014;47.690;9.130;2023-02-12T08:36:56;1.90;99.90
11908;DHT22;6014;47.690;9.130;2023-02-12T08:39:37;2.20;99.90
11908;DHT22;6014;47.690;9.130;2023-02-12T08:42:05;2.20;99.90
11908;DHT22;6014;47.690;9.130;2023-02-12T08:44:33;2.30;99.90
11908;DHT22;6014;47.690;9.130;2023-02-12T08:47:01;2.50;99.90
11908;DHT22;6014;47.690;9.130;2023-02-12T08:49:30;2.60;99.90
11908;DHT22;6014;47.690;9.130;2023-02-12T08:52:07;2.80;99.90
11908;DHT22;6014;47.690;9.130;2023-02-12T08:54:35;2.70;99.90
11908;DHT22;6014;47.690;9.130;2023-02-12T08:57:03;2.80;99.90
11908;DHT22;6014;47.690;9.130;2023-02-12T08:59:32;2.90;99.90
11908;DHT22;6014;47.690;9.130;2023-02-12T09:02:00;3.00;99.90
11908;DHT22;6014;47.690;9.130;2023-02-12T09:04:45;3.20;99.90
11908;DHT22;6014;47.690;9.130;2023-02-12T09:07:13;3.60;99.90
11908;DHT22;6014;47.690;9.130;2023-02-12T09:09:47;3.60;99.90
11908;DHT22;6014;47.690;9.130;2023-02-12T09:12:15;3.80;99.90
11908;DHT22;6014;47.690;9.130;2023-02-12T09:14:43;3.80;99.90
11908;DHT22;6014;47.690;9.130;2023-02-12T09:17:11;4.00;99.90
11908;DHT22;6014;47.690;9.130;2023-02-12T09:19:42;4.00;99.90
11908;DHT22;6014;47.690;9.130;2023-02-12T09:22:12;4.10;99.90
11908;DHT22;6014;47.690;9.130;2023-02-12T09:24:40;4.30;99.90
11908;DHT22;6014;47.690;9.130;2023-02-12T09:27:08;4.50;99.90
11908;DHT22;6014;47.690;9.130;2023-02-12T09:29:36;4.70;99.90
11908;DHT22;6014;47.690;9.130;2023-02-12T09:32:06;4.30;99.90
11908;DHT22;6014;47.690;9.130;2023-02-12T09:34:40;4.90;99.90
11908;DHT22;6014;47.690;9.130;2023-02-12T09:37:08;5.20;99.90
11908;DHT22;6014;47.690;9.130;2023-02-12T09:39:37;5.30;99.90
11908;DHT22;6014;47.690;9.130;2023-02-12T09:42:26;5.50;99.90
11908;DHT22;6014;47.690;9.130;2023-02-12T09:45:06;6.90;99.90
11908;DHT22;6014;47.690;9.130;2023-02-12T09:47:47;5.70;99.90
11908;DHT22;6014;47.690;9.130;2023-02-12T09:50:29;5.80;99.90
11908;DHT22;6014;47.690;9.130;2023-02-12T09:53:01;5.90;99.90
11908;DHT22;6014;47.690;9.130;2023-02-12T09:55:33;6.10;99.90
11908;DHT22;6014;47.690;9.130;2023-02-12T09:58:03;6.70;99.90
11908;DHT22;6014;47.690;9.130;2023-02-12T10:00:36;6.30;99.90
11908;DHT22;6014;47.690;9.130;2023-02-12T10:03:12;6.40;99.90
11908;DHT22;6014;47.690;9.130;2023-02-12T10:05:45;6.50;99.90
11908;DHT22;6014;47.690;9.130;2023-02-12T10:08:29;7.30;99.90
11908;DHT22;6014;47.690;9.130;2023-02-12T10:11:14;6.60;99.90
11908;DHT22;6014;47.690;9.130;2023-02-12T10:13:48;6.50;99.90
11908;DHT22;6014;47.690;9.130;2023-02-12T10:16:37;7.40;99.90
11908;DHT22;6014;47.690;9.130;2023-02-12T10:19:26;7.10;99.90
11908;DHT22;6014;47.690;9.130;2023-02-12T10:22:07;6.90;99.90
11908;DHT22;6014;47.690;9.130;2023-02-12T10:25:01;6.30;99.90
11908;DHT22;6014;47.690;9.130;2023-02-12T10:27:40;6.30;99.90
11908;DHT22;6014;47.690;9.130;2023-02-12T10:30:18;6.40;99.90
11908;DHT22;6014;47.690;9.130;2023-02-12T10:33:05;6.50;99.90
11908;DHT22;6014;47.690;9.130;2023-02-12T10:35:34;6.50;99.90
11908;DHT22;6014;47.690;9.130;2023-02-12T10:38:05;6.60;99.90
11908;DHT22;6014;47.690;9.130;2023-02-12T10:40:44;6.80;99.90
11908;DHT22;6014;47.690;9.130;2023-02-12T10:43:13;6.60;99.90
11908;DHT22;6014;47.690;9.130;2023-02-12T10:45:42;6.70;99.90
11908;DHT22;6014;47.690;9.130;2023-02-12T10:48:16;7.00;99.90
11908;DHT22;6014;47.690;9.130;2023-02-12T10:51:02;6.90;99.90
11908;DHT22;6014;47.690;9.130;2023-02-12T10:53:39;7.20;99.90
11908;DHT22;6014;47.690;9.130;2023-02-12T10:56:17;7.30;99.90
11908;DHT22;6014;47.690;9.130;2023-02-12T10:58:56;7.10;99.90
11908;DHT22;6014;47.690;9.130;2023-02-12T11:01:36;7.30;99.90
11908;DHT22;6014;47.690;9.130;2023-02-12T11:04:25;7.40;99.90
11908;DHT22;6014;47.690;9.130;2023-02-12T11:07:02;7.70;99.90
11908;DHT22;6014;47.690;9.130;2023-02-12T11:09:49;8.00;99.90
11908;DHT22;6014;47.690;9.130;2023-02-12T11:12:29;7.90;99.90
11908;DHT22;6014;47.690;9.130;2023-02-12T11:15:12;8.00;99.90
11908;DHT22;6014;47.690;9.130;2023-02-12T11:17:55;7.90;99.90
11908;DHT22;6014;47.690;9.130;2023-02-12T11:20:25;7.90;99.90
11908;DHT22;6014;47.690;9.130;2023-02-12T11:22:56;7.80;99.90
11908;DHT22;6014;47.690;9.130;2023-02-12T11:25:26;8.10;99.90
11908;DHT22;6014;47.690;9.130;2023-02-12T11:28:00;8.00;99.90
11908;DHT22;6014;47.690;9.130;2023-02-12T11:30:30;8.20;99.90
11908;DHT22;6014;47.690;9.130;2023-02-12T11:33:14;8.20;99.90
11908;DHT22;6014;47.690;9.130;2023-02-12T11:35:51;8.20;99.90
11908;DHT22;6014;47.690;9.130;2023-02-12T11:38:24;8.30;99.90
11908;DHT22;6014;47.690;9.130;2023-02-12T11:40:58;8.90;99.90
11908;DHT22;6014;47.690;9.130;2023-02-12T11:43:28;8.50;99.90
11908;DHT22;6014;47.690;9.130;2023-02-12T11:45:59;8.50;99.90
11908;DHT22;6014;47.690;9.130;2023-02-12T11:48:30;8.60;99.90
11908;DHT22;6014;47.690;9.130;2023-02-12T11:51:02;8.50;99.90
11908;DHT22;6014;47.690;9.130;2023-02-12T11:53:32;8.60;99.90
11908;DHT22;6014;47.690;9.130;2023-02-12T11:56:04;8.60;99.90
11908;DHT22;6014;47.690;9.130;2023-02-12T11:58:32;8.50;99.90
11908;DHT22;6014;47.690;9.130;2023-02-12T12:01:11;8.70;99.90
11908;DHT22;6014;47.690;9.130;2023-02-12T12:03:57;9.00;99.90
11908;DHT22;6014;47.690;9.130;2023-02-12T12:06:33;9.30;99.90
11908;DHT22;6014;47.690;9.130;2023-02-12T12:09:09;9.20;99.90
11908;DHT22;6014;47.690;9.130;2023-02-12T12:11:46;9.30;99.90
11908;DHT22;6014;47.690;9.130;2023-02-12T12:14:38;9.50;99.90
11908;DHT22;6014;47.690;9.130;2023-02-12T12:17:32;9.60;99.90
11908;DHT22;6014;47.690;9.130;2023-02-12T12:20:28;9.60;99.90
11908;DHT22;6014;47.690;9.130;2023-02-12T12:23:10;9.50;99.90
11908;DHT22;6014;47.690;9.130;2023-02-12T12:25:54;9.50;99.90
11908;DHT22;6014;47.690;9.130;2023-02-12T12:28:31;9.40;99.90
11908;DHT22;6014;47.690;9.130;2023-02-12T12:31:22;9.60;99.90
11908;DHT22;6014;47.690;9.130;2023-02-12T12:34:01;9.50;99.90
11908;DHT22;6014;47.690;9.130;2023-02-12T12:39:35;10.00;99.90
11908;DHT22;6014;47.690;9.130;2023-02-12T12:42:23;10.00;99.90
11908;DHT22;6014;47.690;9.130;2023-02-12T12:45:09;10.30;99.90
11908;DHT22;6014;47.690;9.130;2023-02-12T12:47:52;10.10;99.90
11908;DHT22;6014;47.690;9.130;2023-02-12T12:50:34;10.00;99.90
11908;DHT22;6014;47.690;9.130;2023-02-12T12:53:28;10.30;99.90
11908;DHT22;6014;47.690;9.130;2023-02-12T12:56:20;10.30;99.90
11908;DHT22;6014;47.690;9.130;2023-02-12T12:58:59;10.30;99.90
11908;DHT22;6014;47.690;9.130;2023-02-12T13:01:53;10.60;99.90
11908;DHT22;6014;47.690;9.130;2023-02-12T13:07:44;11.00;99.90
11908;DHT22;6014;47.690;9.130;2023-02-12T13:10:21;11.00;99.90
11908;DHT22;6014;47.690;9.130;2023-02-12T13:13:05;11.20;99.90
11908;DHT22;6014;47.690;9.130;2023-02-12T13:15:40;11.00;99.90
11908;DHT22;6014;47.690;9.130;2023-02-12T13:18:18;10.90;99.90
11908;DHT22;6014;47.690;9.130;2023-02-12T13:20:52;10.80;99.90
11908;DHT22;6014;47.690;9.130;2023-02-12T13:23:32;11.10;99.90
11908;DHT22;6014;47.690;9.130;2023-02-12T13:26:09;11.30;99.80
11908;DHT22;6014;47.690;9.130;2023-02-12T13:28:43;11.30;99.20
11908;DHT22;6014;47.690;9.130;2023-02-12T13:31:15;11.10;99.80
11908;DHT22;6014;47.690;9.130;2023-02-12T13:34:01;11.50;99.60
11908;DHT22;6014;47.690;9.130;2023-02-12T13:36:32;11.60;97.60
11908;DHT22;6014;47.690;9.130;2023-02-12T13:39:13;11.60;97.60
11908;DHT22;6014;47.690;9.130;2023-02-12T13:42:02;11.90;95.80
11908;DHT22;6014;47.690;9.130;2023-02-12T13:44:38;12.10;94.50
11908;DHT22;6014;47.690;9.130;2023-02-12T13:47:16;11.50;95.40
11908;DHT22;6014;47.690;9.130;2023-02-12T13:49:51;11.70;95.20
11908;DHT22;6014;47.690;9.130;2023-02-12T13:52:29;11.70;96.60
11908;DHT22;6014;47.690;9.130;2023-02-12T13:55:19;11.60;95.40
11908;DHT22;6014;47.690;9.130;2023-02-12T14:00:57;11.80;96.20
11908;DHT22;6014;47.690;9.130;2023-02-12T14:03:26;12.00;95.80
11908;DHT22;6014;47.690;9.130;2023-02-12T14:06:16;12.00;94.80
11908;DHT22;6014;47.690;9.130;2023-02-12T14:08:47;12.10;94.50
11908;DHT22;6014;47.690;9.130;2023-02-12T14:11:21;12.40;94.40
11908;DHT22;6014;47.690;9.130;2023-02-12T14:13:54;12.40;94.50
11908;DHT22;6014;47.690;9.130;2023-02-12T14:16:39;12.20;93.40
11908;DHT22;6014;47.690;9.130;2023-02-12T14:19:36;12.30;93.80
11908;DHT22;6014;47.690;9.130;2023-02-12T14:22:10;12.60;93.80
11908;DHT22;6014;47.690;9.130;2023-02-12T14:24:53;12.70;92.80
11908;DHT22;6014;47.690;9.130;2023-02-12T14:27:41;12.50;92.80
11908;DHT22;6014;47.690;9.130;2023-02-12T14:30:28;12.40;93.90
11908;DHT22;6014;47.690;9.130;2023-02-12T14:33:22;12.10;95.70
11908;DHT22;6014;47.690;9.130;2023-02-12T14:36:14;12.00;97.00
11908;DHT22;6014;47.690;9.130;2023-02-12T14:39:03;12.10;97.40
11908;DHT22;6014;47.690;9.130;2023-02-12T14:41:36;12.10;96.80
11908;DHT22;6014;47.690;9.130;2023-02-12T14:44:46;12.00;97.30
11908;DHT22;6014;47.690;9.130;2023-02-12T14:47:50;12.10;97.30
11908;DHT22;6014;47.690;9.130;2023-02-12T14:50:26;12.00;97.50
11908;DHT22;6014;47.690;9.130;2023-02-12T14:53:03;12.10;97.80
11908;DHT22;6014;47.690;9.130;2023-02-12T14:55:33;12.00;98.20
11908;DHT22;6014;47.690;9.130;2023-02-12T14:58:04;11.80;98.30
11908;DHT22;6014;47.690;9.130;2023-02-12T15:00:39;11.90;98.50
11908;DHT22;6014;47.690;9.130;2023-02-12T15:03:29;11.80;98.70
11908;DHT22;6014;47.690;9.130;2023-02-12T15:06:10;11.70;99.10
11908;DHT22;6014;47.690;9.130;2023-02-12T15:08:44;11.60;98.90
11908;DHT22;6014;47.690;9.130;2023-02-12T15:11:26;11.60;99.30
11908;DHT22;6014;47.690;9.130;2023-02-12T15:13:59;11.60;99.40
11908;DHT22;6014;47.690;9.130;2023-02-12T15:16:37;11.60;99.90
11908;DHT22;6014;47.690;9.130;2023-02-12T15:19:17;11.60;99.50
11908;DHT22;6014;47.690;9.130;2023-02-12T15:21:47;11.50;99.90
11908;DHT22;6014;47.690;9.130;2023-02-12T15:24:21;11.40;99.90
11908;DHT22;6014;47.690;9.130;2023-02-12T15:26:51;11.40;99.90
11908;DHT22;6014;47.690;9.130;2023-02-12T15:29:23;11.50;99.90
11908;DHT22;6014;47.690;9.130;2023-02-12T15:31:56;11.30;99.90
11908;DHT22;6014;47.690;9.130;2023-02-12T15:34:27;11.20;99.90
11908;DHT22;6014;47.690;9.130;2023-02-12T15:36:58;10.90;99.90
11908;DHT22;6014;47.690;9.130;2023-02-12T15:39:30;10.60;99.90
11908;DHT22;6014;47.690;9.130;2023-02-12T15:42:04;10.40;99.90
11908;DHT22;6014;47.690;9.130;2023-02-12T15:44:49;10.30;99.90
11908;DHT22;6014;47.690;9.130;2023-02-12T15:47:18;10.20;99.90
11908;DHT22;6014;47.690;9.130;2023-02-12T15:49:58;9.90;99.90
11908;DHT22;6014;47.690;9.130;2023-02-12T15:52:31;9.70;99.90
11908;DHT22;6014;47.690;9.130;2023-02-12T15:55:01;9.70;99.90
11908;DHT22;6014;47.690;9.130;2023-02-12T15:57:30;9.60;99.90
11908;DHT22;6014;47.690;9.130;2023-02-12T16:00:03;9.80;99.90
11908;DHT22;6014;47.690;9.130;2023-02-12T16:02:34;9.80;99.90
11908;DHT22;6014;47.690;9.130;2023-02-12T16:05:03;9.90;99.90
11908;DHT22;6014;47.690;9.130;2023-02-12T16:07:42;9.90;99.90
11908;DHT22;6014;47.690;9.130;2023-02-12T16:10:13;9.60;99.90
11908;DHT22;6014;47.690;9.130;2023-02-12T16:12:42;9.30;99.90
11908;DHT22;6014;47.690;9.130;2023-02-12T16:15:23;8.80;99.90
11908;DHT22;6014;47.690;9.130;2023-02-12T16:18:20;8.70;99.90
11908;DHT22;6014;47.690;9.130;2023-02-12T16:21:02;8.50;99.90
11908;DHT22;6014;47.690;9.130;2023-02-12T16:23:30;8.10;99.90
11908;DHT22;6014;47.690;9.130;2023-02-12T16:25:58;7.90;99.90
11908;DHT22;6014;47.690;9.130;2023-02-12T16:28:28;7.70;99.90
11908;DHT22;6014;47.690;9.130;2023-02-12T16:31:07;7.60;99.90
11908;DHT22;6014;47.690;9.130;2023-02-12T16:33:43;7.50;99.90
11908;DHT22;6014;47.690;9.130;2023-02-12T16:36:27;7.40;99.90
11908;DHT22;6014;47.690;9.130;2023-02-12T16:38:58;7.20;99.90
11908;DHT22;6014;47.690;9.130;2023-02-12T16:41:27;7.10;99.90
11908;DHT22;6014;47.690;9.130;2023-02-12T16:44:25;7.00;99.90
11908;DHT22;6014;47.690;9.130;2023-02-12T16:46:57;6.80;99.90
11908;DHT22;6014;47.690;9.130;2023-02-12T16:49:29;6.80;99.90
11908;DHT22;6014;47.690;9.130;2023-02-12T16:52:20;6.70;99.90
11908;DHT22;6014;47.690;9.130;2023-02-12T16:54:55;6.60;99.90
11908;DHT22;6014;47.690;9.130;2023-02-12T16:57:23;6.50;99.90
11908;DHT22;6014;47.690;9.130;2023-02-12T16:59:51;6.40;99.90
11908;DHT22;6014;47.690;9.130;2023-02-12T17:02:19;6.30;99.90
11908;DHT22;6014;47.690;9.130;2023-02-12T17:05:11;6.20;99.90
11908;DHT22;6014;47.690;9.130;2023-02-12T17:07:43;6.10;99.90
11908;DHT22;6014;47.690;9.130;2023-02-12T17:10:12;6.00;99.90
11908;DHT22;6014;47.690;9.130;2023-02-12T17:12:44;6.00;99.90